createdAt,value
2022-08-19T00:01:53.818Z,14.20
2022-08-19T00:04:23.149Z,15.63
2022-08-19T00:06:49.847Z,14.07
2022-08-19T00:09:19.254Z,14.10
2022-08-19T00:11:47.377Z,13.43
2022-08-19T00:14:16.091Z,13.45
2022-08-19T00:16:44.217Z,13.93
2022-08-19T00:19:11.092Z,13.40
2022-08-19T00:21:37.717Z,13.85
2022-08-19T00:24:04.558Z,13.98
2022-08-19T00:26:31.233Z,13.70
2022-08-19T00:28:59.139Z,13.50
2022-08-19T00:31:25.703Z,14.90
2022-08-19T00:33:52.242Z,13.70
2022-08-19T00:36:18.814Z,13.98
2022-08-19T00:38:45.678Z,14.48
2022-08-19T00:41:15.472Z,15.50
2022-08-19T00:43:42.068Z,15.48
2022-08-19T00:46:10.157Z,14.82
2022-08-19T00:48:37.047Z,15.05
2022-08-19T00:51:07.396Z,15.48
2022-08-19T00:53:34.068Z,16.23
2022-08-19T00:56:03.212Z,14.05
2022-08-19T00:58:33.290Z,16.60
2022-08-19T01:01:00.608Z,14.38
2022-08-19T01:03:28.618Z,15.48
2022-08-19T01:05:56.365Z,16.98
2022-08-19T01:08:24.017Z,17.42
2022-08-19T01:10:54.505Z,15.75
2022-08-19T01:13:24.118Z,16.50
2022-08-19T01:15:54.706Z,15.52
2022-08-19T01:18:22.540Z,16.15
2022-08-19T01:20:51.638Z,18.88
2022-08-19T01:23:20.778Z,16.38
2022-08-19T01:25:50.412Z,17.23
2022-08-19T01:28:34.312Z,13.98
2022-08-19T01:31:08.353Z,17.08
2022-08-19T01:33:35.148Z,15.30
2022-08-19T01:36:07.764Z,15.77
2022-08-19T01:38:44.017Z,23.97
2022-08-19T01:41:11.819Z,19.90
2022-08-19T01:43:38.384Z,16.92
2022-08-19T01:46:25.184Z,19.13
2022-08-19T01:48:51.854Z,17.45
2022-08-19T01:51:18.450Z,16.20
2022-08-19T01:53:48.275Z,18.27
2022-08-19T01:56:14.979Z,16.85
2022-08-19T01:58:46.047Z,15.88
2022-08-19T02:01:13.367Z,20.67
2022-08-19T02:03:40.066Z,17.25
2022-08-19T02:06:07.034Z,16.27
2022-08-19T02:08:37.486Z,17.73
2022-08-19T02:11:07.832Z,16.15
2022-08-19T02:13:35.461Z,19.58
2022-08-19T02:16:04.289Z,17.15
2022-08-19T02:18:31.183Z,17.40
2022-08-19T02:20:57.765Z,20.85
2022-08-19T02:23:24.331Z,18.02
2022-08-19T02:25:52.477Z,17.70
2022-08-19T02:28:20.497Z,17.67
2022-08-19T02:30:48.662Z,18.70
2022-08-19T02:33:15.711Z,18.67
2022-08-19T02:35:43.133Z,19.55
2022-08-19T02:38:10.021Z,19.27
2022-08-19T02:40:37.886Z,20.92
2022-08-19T02:43:06.328Z,18.38
2022-08-19T02:45:34.736Z,20.75
2022-08-19T02:48:01.382Z,21.05
2022-08-19T02:50:30.053Z,24.00
2022-08-19T02:52:56.669Z,19.05
2022-08-19T02:55:23.299Z,19.90
2022-08-19T02:57:49.973Z,22.08
2022-08-19T03:00:17.163Z,20.95
2022-08-19T03:02:45.171Z,22.95
2022-08-19T03:05:11.971Z,21.23
2022-08-19T03:07:38.627Z,16.13
2022-08-19T03:10:06.492Z,17.45
2022-08-19T03:12:36.960Z,17.35
2022-08-19T03:15:04.740Z,17.13
2022-08-19T03:17:31.391Z,15.80
2022-08-19T03:19:59.567Z,16.88
2022-08-19T03:22:26.161Z,18.83
2022-08-19T03:24:52.712Z,23.23
2022-08-19T03:27:19.264Z,18.52
2022-08-19T03:29:45.771Z,17.85
2022-08-19T03:32:32.133Z,19.08
2022-08-19T03:35:00.268Z,17.00
2022-08-19T03:37:26.815Z,18.83
2022-08-19T03:39:53.472Z,18.25
2022-08-19T03:42:32.991Z,22.73
2022-08-19T03:45:07.862Z,18.73
2022-08-19T03:47:34.478Z,20.55
2022-08-19T03:50:02.976Z,20.30
2022-08-19T03:52:29.541Z,22.48
2022-08-19T03:54:56.142Z,20.17
2022-08-19T03:57:30.648Z,23.33
2022-08-19T04:00:06.846Z,18.83
2022-08-19T04:02:39.938Z,19.92
2022-08-19T04:05:08.566Z,18.13
2022-08-19T04:07:35.124Z,18.48
2022-08-19T04:10:01.702Z,18.20
2022-08-19T04:12:29.102Z,16.05
2022-08-19T04:14:55.681Z,16.70
2022-08-19T04:17:22.210Z,15.80
2022-08-19T04:19:48.891Z,14.80
2022-08-19T04:22:16.837Z,15.38
2022-08-19T04:24:43.404Z,17.17
2022-08-19T04:27:09.959Z,17.50
2022-08-19T04:29:36.496Z,18.30
2022-08-19T04:32:09.142Z,18.38
2022-08-19T04:34:37.171Z,16.83
2022-08-19T04:37:25.404Z,16.90
2022-08-19T04:39:52.007Z,18.73
2022-08-19T04:42:30.867Z,17.67
2022-08-19T04:44:57.780Z,16.95
2022-08-19T04:47:49.115Z,16.27
2022-08-19T04:50:12.243Z,16.08
2022-08-19T04:52:40.423Z,18.63
2022-08-19T04:55:07.537Z,16.35
2022-08-19T04:57:34.191Z,16.50
2022-08-19T05:00:00.757Z,15.80
2022-08-19T05:02:27.321Z,18.38
2022-08-19T05:04:58.114Z,16.98
2022-08-19T05:07:24.674Z,16.20
2022-08-19T05:09:58.215Z,19.00
2022-08-19T05:12:29.177Z,16.55
2022-08-19T05:14:56.802Z,17.05
2022-08-19T05:17:27.522Z,17.58
2022-08-19T05:19:55.540Z,17.08
2022-08-19T05:22:22.127Z,16.17
2022-08-19T05:25:11.283Z,17.75
2022-08-19T05:27:36.927Z,19.38
2022-08-19T05:30:05.108Z,19.38
2022-08-19T05:32:31.745Z,18.10
2022-08-19T05:34:58.311Z,18.05
2022-08-19T05:37:24.888Z,19.98
2022-08-19T05:39:51.834Z,17.20
2022-08-19T05:42:18.508Z,16.42
2022-08-19T05:44:46.487Z,17.52
2022-08-19T05:47:14.421Z,15.73
2022-08-19T05:49:41.398Z,15.95
2022-08-19T05:52:10.609Z,14.60
2022-08-19T05:54:38.896Z,15.65
2022-08-19T05:57:05.498Z,15.23
2022-08-19T05:59:32.115Z,16.83
2022-08-19T06:02:00.008Z,18.35
2022-08-19T06:04:26.614Z,16.58
2022-08-19T06:06:54.605Z,17.05
2022-08-19T06:09:22.539Z,16.80
2022-08-19T06:11:54.110Z,18.90
2022-08-19T06:14:27.929Z,15.90
2022-08-19T06:16:55.259Z,15.67
2022-08-19T06:19:23.995Z,16.40
2022-08-19T06:21:51.703Z,16.40
2022-08-19T06:24:20.732Z,15.40
2022-08-19T06:26:49.922Z,15.63
2022-08-19T06:29:23.426Z,19.05
2022-08-19T06:31:53.018Z,15.70
2022-08-19T06:34:20.279Z,17.13
2022-08-19T06:36:50.381Z,21.00
2022-08-19T06:39:19.086Z,15.95
2022-08-19T06:41:51.791Z,14.95
2022-08-19T06:44:22.710Z,17.10
2022-08-19T06:46:54.867Z,14.73
2022-08-19T06:49:21.882Z,18.00
2022-08-19T06:51:51.790Z,16.70
2022-08-19T06:54:20.265Z,14.43
2022-08-19T06:56:47.457Z,14.60
2022-08-19T06:59:16.567Z,15.77
2022-08-19T07:01:46.300Z,16.85
2022-08-19T07:04:14.954Z,16.63
2022-08-19T07:06:44.377Z,14.82
2022-08-19T07:09:18.423Z,14.68
2022-08-19T07:11:46.652Z,16.50
2022-08-19T07:14:19.400Z,17.42
2022-08-19T07:16:46.594Z,16.13
2022-08-19T07:19:15.913Z,17.05
2022-08-19T07:21:43.162Z,16.67
2022-08-19T07:24:10.011Z,17.73
2022-08-19T07:26:42.957Z,17.15
2022-08-19T07:29:10.513Z,16.92
2022-08-19T07:31:37.132Z,19.98
2022-08-19T07:34:06.216Z,18.95
2022-08-19T07:36:32.882Z,18.58
2022-08-19T07:39:00.715Z,16.50
2022-08-19T07:41:29.041Z,18.17
2022-08-19T07:43:57.149Z,17.83
2022-08-19T07:46:23.721Z,17.80
2022-08-19T07:48:52.211Z,17.55
2022-08-19T07:51:29.541Z,18.52
2022-08-19T07:54:04.726Z,18.33
2022-08-19T07:56:31.619Z,18.08
2022-08-19T07:58:59.482Z,18.30
2022-08-19T08:01:28.269Z,17.92
2022-08-19T08:03:56.817Z,21.35
2022-08-19T08:06:23.541Z,19.63
2022-08-19T08:08:50.131Z,17.25
2022-08-19T08:11:20.895Z,19.05
2022-08-19T08:13:48.637Z,18.50
2022-08-19T08:16:29.898Z,18.17
2022-08-19T08:18:56.712Z,19.90
2022-08-19T08:21:24.251Z,17.92
2022-08-19T08:23:53.185Z,19.52
2022-08-19T08:26:20.974Z,19.95
2022-08-19T08:28:47.959Z,17.50
2022-08-19T08:31:16.079Z,18.83
2022-08-19T08:33:44.215Z,19.17
2022-08-19T08:36:12.213Z,20.67
2022-08-19T08:38:41.019Z,19.42
2022-08-19T08:41:18.567Z,21.73
2022-08-19T08:43:47.242Z,19.17
2022-08-19T08:46:30.490Z,19.83
2022-08-19T08:49:05.960Z,17.60
2022-08-19T08:51:36.430Z,19.95
2022-08-19T08:54:06.962Z,17.15
2022-08-19T08:56:34.205Z,17.60
2022-08-19T08:59:05.362Z,20.70
2022-08-19T09:01:32.095Z,18.88
2022-08-19T09:04:02.795Z,20.08
2022-08-19T09:06:40.583Z,22.98
2022-08-19T09:09:17.925Z,19.40
2022-08-19T09:12:05.231Z,19.88
2022-08-19T09:14:50.281Z,20.30
2022-08-19T09:17:18.537Z,20.40
2022-08-19T09:19:55.688Z,19.10
2022-08-19T09:22:25.570Z,20.00
2022-08-19T09:24:53.314Z,19.45
2022-08-19T09:27:20.327Z,20.33
2022-08-19T09:29:47.018Z,18.52
2022-08-19T09:32:26.441Z,21.02
2022-08-19T09:34:55.372Z,21.67
2022-08-19T09:37:22.331Z,21.13
2022-08-19T09:39:51.941Z,20.17
2022-08-19T09:42:29.715Z,22.58
2022-08-19T09:44:57.198Z,19.83
2022-08-19T09:47:26.620Z,20.85
2022-08-19T09:49:53.179Z,18.75
2022-08-19T09:52:21.250Z,20.40
2022-08-19T09:54:51.982Z,19.42
2022-08-19T09:57:18.848Z,20.92
2022-08-19T09:59:45.423Z,20.15
2022-08-19T10:02:12.049Z,20.52
2022-08-19T10:04:39.333Z,20.48
2022-08-19T10:07:07.021Z,19.17
2022-08-19T10:09:35.784Z,19.00
2022-08-19T10:12:03.773Z,20.30
2022-08-19T10:14:30.689Z,20.88
2022-08-19T10:16:59.231Z,19.02
2022-08-19T10:19:26.470Z,19.00
2022-08-19T10:21:53.526Z,18.50
2022-08-19T10:24:20.197Z,18.85
2022-08-19T10:26:48.434Z,18.83
2022-08-19T10:29:32.897Z,20.88
2022-08-19T10:32:02.635Z,20.00
2022-08-19T10:34:30.841Z,17.27
2022-08-19T10:37:00.593Z,17.98
2022-08-19T10:39:28.656Z,17.92
2022-08-19T10:41:58.876Z,18.83
2022-08-19T10:44:32.304Z,18.13
2022-08-19T10:47:00.394Z,17.17
2022-08-19T10:49:28.020Z,18.27
2022-08-19T10:51:55.153Z,17.52
2022-08-19T10:54:31.142Z,15.75
2022-08-19T10:57:00.586Z,19.88
2022-08-19T10:59:35.282Z,15.48
2022-08-19T11:02:05.888Z,14.80
2022-08-19T11:04:32.585Z,15.65
2022-08-19T11:06:59.130Z,15.23
2022-08-19T11:09:33.699Z,13.65
2022-08-19T11:12:02.805Z,12.18
2022-08-19T11:14:31.323Z,14.98
2022-08-19T11:17:00.680Z,12.20
2022-08-19T11:19:27.398Z,12.50
2022-08-19T11:21:54.504Z,11.43
2022-08-19T11:24:26.251Z,16.20
2022-08-19T11:27:01.119Z,12.10
2022-08-19T11:29:29.270Z,11.95
2022-08-19T11:31:55.947Z,11.95
2022-08-19T11:34:25.847Z,14.40
2022-08-19T11:36:52.696Z,11.57
2022-08-19T11:39:20.959Z,12.27
2022-08-19T11:41:48.109Z,11.32
2022-08-19T11:44:14.990Z,10.50
2022-08-19T11:46:44.265Z,11.63
2022-08-19T11:49:13.973Z,12.55
2022-08-19T11:51:41.640Z,10.40
2022-08-19T11:54:08.370Z,9.65
2022-08-19T11:56:35.057Z,10.32
2022-08-19T11:59:02.158Z,10.52
2022-08-19T12:01:29.068Z,11.15
2022-08-19T12:03:58.166Z,11.35
2022-08-19T12:06:28.052Z,9.80
2022-08-19T12:08:55.226Z,8.93
2022-08-19T12:11:22.272Z,8.85
2022-08-19T12:13:49.045Z,8.77
2022-08-19T12:16:17.743Z,8.85
2022-08-19T12:18:45.319Z,9.82
2022-08-19T12:21:13.717Z,8.50
2022-08-19T12:23:40.744Z,8.90
2022-08-19T12:26:09.481Z,8.43
2022-08-19T12:28:36.522Z,8.57
2022-08-19T12:31:03.200Z,9.75
2022-08-19T12:33:29.931Z,9.15
2022-08-19T12:36:02.109Z,9.00
2022-08-19T12:38:30.080Z,8.95
2022-08-19T12:41:00.175Z,8.85
2022-08-19T12:43:27.295Z,9.55
2022-08-19T12:45:53.957Z,10.02
2022-08-19T12:48:34.246Z,10.23
2022-08-19T12:51:01.969Z,11.32
2022-08-19T12:53:30.061Z,10.07
2022-08-19T12:55:56.775Z,11.07
2022-08-19T12:58:27.206Z,11.40
2022-08-19T13:00:54.641Z,11.85
2022-08-19T13:03:21.759Z,11.50
2022-08-19T13:05:48.402Z,11.75
2022-08-19T13:08:14.961Z,11.02
2022-08-19T13:10:42.910Z,11.55
2022-08-19T13:13:10.480Z,11.55
2022-08-19T13:15:39.221Z,11.27
2022-08-19T13:18:06.007Z,11.25
2022-08-19T13:20:32.764Z,10.82
2022-08-19T13:22:59.316Z,11.90
2022-08-19T13:25:26.458Z,10.80
2022-08-19T13:27:54.490Z,13.60
2022-08-19T13:30:21.442Z,12.10
2022-08-19T13:32:48.911Z,11.40
2022-08-19T13:35:16.946Z,11.57
2022-08-19T13:37:44.146Z,11.25
2022-08-19T13:40:14.392Z,11.43
2022-08-19T13:42:41.310Z,10.68
2022-08-19T13:45:10.419Z,12.77
2022-08-19T13:47:37.214Z,10.27
2022-08-19T13:50:03.971Z,11.77
2022-08-19T13:52:30.592Z,10.63
2022-08-19T13:54:57.356Z,10.38
2022-08-19T13:57:23.944Z,10.98
2022-08-19T13:59:50.558Z,11.27
2022-08-19T14:02:18.496Z,11.98
2022-08-19T14:04:45.157Z,10.45
2022-08-19T14:07:11.768Z,10.85
2022-08-19T14:09:38.317Z,10.13
2022-08-19T14:12:05.564Z,10.68
2022-08-19T14:14:32.224Z,10.88
2022-08-19T14:16:58.780Z,10.10
2022-08-19T14:19:29.994Z,9.57
2022-08-19T14:21:56.995Z,11.35
2022-08-19T14:24:23.558Z,11.27
2022-08-19T14:26:50.109Z,11.80
2022-08-19T14:29:17.207Z,10.90
2022-08-19T14:31:44.042Z,12.25
2022-08-19T14:34:11.437Z,20.27
2022-08-19T14:36:39.503Z,14.95
2022-08-19T14:39:06.459Z,13.63
2022-08-19T14:41:33.052Z,13.52
2022-08-19T14:43:59.819Z,14.50
2022-08-19T14:46:29.604Z,14.30
2022-08-19T14:48:57.070Z,15.55
2022-08-19T14:51:26.972Z,15.75
2022-08-19T14:53:55.174Z,15.43
2022-08-19T14:56:24.605Z,14.85
2022-08-19T14:58:51.263Z,15.82
2022-08-19T15:01:18.772Z,14.10
2022-08-19T15:03:45.373Z,13.65
2022-08-19T15:06:12.802Z,14.27
2022-08-19T15:08:41.887Z,13.38
2022-08-19T15:11:11.885Z,12.52
2022-08-19T15:13:38.885Z,12.20
2022-08-19T15:16:05.935Z,11.75
2022-08-19T15:18:42.123Z,11.30
2022-08-19T15:21:08.749Z,13.55
2022-08-19T15:23:35.426Z,10.90
2022-08-19T15:26:02.119Z,11.10
2022-08-19T15:28:30.121Z,10.45
2022-08-19T15:30:56.702Z,12.10
2022-08-19T15:33:23.236Z,10.32
2022-08-19T15:35:49.957Z,10.60
2022-08-19T15:38:16.533Z,10.23
2022-08-19T15:40:43.118Z,9.07
2022-08-19T15:43:09.855Z,9.63
2022-08-19T15:45:37.911Z,9.52
2022-08-19T15:48:05.083Z,8.57
2022-08-19T15:50:32.283Z,7.82
2022-08-19T15:53:01.353Z,7.88
2022-08-19T15:55:33.301Z,8.43
2022-08-19T15:58:01.809Z,7.03
2022-08-19T16:00:28.407Z,8.20
2022-08-19T16:02:56.354Z,7.32
2022-08-19T16:05:26.531Z,7.75
2022-08-19T16:07:53.386Z,8.20
2022-08-19T16:10:26.429Z,8.60
2022-08-19T16:12:54.367Z,9.20
2022-08-19T16:15:21.276Z,8.20
2022-08-19T16:17:55.434Z,10.02
2022-08-19T16:20:26.046Z,8.55
2022-08-19T16:22:54.502Z,8.55
2022-08-19T16:25:21.142Z,8.57
2022-08-19T16:27:54.243Z,8.45
2022-08-19T16:30:33.691Z,8.25
2022-08-19T16:33:00.288Z,8.93
2022-08-19T16:35:28.223Z,7.90
2022-08-19T16:37:54.900Z,9.82
2022-08-19T16:40:22.798Z,8.38
2022-08-19T16:42:49.606Z,7.57
2022-08-19T16:45:16.183Z,8.18
2022-08-19T16:47:42.780Z,7.32
2022-08-19T16:50:09.657Z,7.80
2022-08-19T16:52:37.619Z,7.88
2022-08-19T16:55:05.279Z,8.15
2022-08-19T16:57:31.973Z,8.77
2022-08-19T16:59:58.568Z,9.55
2022-08-19T17:02:29.499Z,9.88
2022-08-19T17:04:58.785Z,10.13
2022-08-19T17:07:26.972Z,9.65
2022-08-19T17:09:55.177Z,10.25
2022-08-19T17:12:22.198Z,10.32
2022-08-19T17:14:57.565Z,12.85
2022-08-19T17:17:28.785Z,13.45
2022-08-19T17:19:56.021Z,10.27
2022-08-19T17:22:22.746Z,11.32
2022-08-19T17:24:49.417Z,11.70
2022-08-19T17:27:17.328Z,13.80
2022-08-19T17:29:46.917Z,14.25
2022-08-19T17:32:14.055Z,21.25
2022-08-19T17:34:40.834Z,20.85
2022-08-19T17:37:07.458Z,22.60
2022-08-19T17:39:37.149Z,23.20
2022-08-19T17:42:06.787Z,27.58
2022-08-19T17:44:36.391Z,30.27
2022-08-19T17:47:03.156Z,28.02
2022-08-19T17:49:29.783Z,29.08
2022-08-19T17:51:59.414Z,28.13
2022-08-19T17:54:31.910Z,30.17
2022-08-19T17:57:00.442Z,31.08
2022-08-19T17:59:30.091Z,31.05
2022-08-19T18:01:58.206Z,30.52
2022-08-19T18:04:26.189Z,31.25
2022-08-19T18:06:55.100Z,33.70
2022-08-19T18:09:24.590Z,35.22
2022-08-19T18:11:53.671Z,34.05
2022-08-19T18:14:20.854Z,33.45
2022-08-19T18:16:47.407Z,32.72
2022-08-19T18:19:15.370Z,32.85
2022-08-19T18:21:41.938Z,30.33
2022-08-19T18:24:08.582Z,32.33
2022-08-19T18:26:35.161Z,30.15
2022-08-19T18:29:01.791Z,30.20
2022-08-19T18:31:28.533Z,29.77
2022-08-19T18:33:55.219Z,28.25
2022-08-19T18:36:50.120Z,33.72
2022-08-19T18:39:09.806Z,28.17
2022-08-19T18:41:38.936Z,30.40
2022-08-19T18:44:05.470Z,33.90
2022-08-19T18:46:33.036Z,30.33
2022-08-19T18:49:03.586Z,27.42
2022-08-19T18:51:32.071Z,26.08
2022-08-19T18:53:59.318Z,26.85
2022-08-19T18:56:27.715Z,27.10
2022-08-19T18:58:54.690Z,24.90
2022-08-19T19:01:25.042Z,24.98
2022-08-19T19:03:54.630Z,26.95
2022-08-19T19:06:24.519Z,24.60
2022-08-19T19:08:53.751Z,24.05
2022-08-19T19:11:24.606Z,24.95
2022-08-19T19:13:51.406Z,22.95
2022-08-19T19:16:22.429Z,22.30
2022-08-19T19:18:50.939Z,24.00
2022-08-19T19:21:17.713Z,24.02
2022-08-19T19:23:44.274Z,20.75
2022-08-19T19:26:13.268Z,21.48
2022-08-19T19:28:41.239Z,19.98
2022-08-19T19:31:12.721Z,21.95
2022-08-19T19:33:40.012Z,20.13
2022-08-19T19:36:06.813Z,19.02
2022-08-19T19:38:33.415Z,20.85
2022-08-19T19:41:00.111Z,19.67
2022-08-19T19:43:28.093Z,18.38
2022-08-19T19:45:54.804Z,22.08
2022-08-19T19:48:21.375Z,21.48
2022-08-19T19:50:53.937Z,19.23
2022-08-19T19:53:24.102Z,18.45
2022-08-19T19:55:53.720Z,19.80
2022-08-19T19:58:21.277Z,20.58
2022-08-19T20:00:58.051Z,19.10
2022-08-19T20:03:24.785Z,19.55
2022-08-19T20:05:51.391Z,20.90
2022-08-19T20:08:18.552Z,20.35
2022-08-19T20:10:46.024Z,22.15
2022-08-19T20:13:13.016Z,19.58
2022-08-19T20:15:42.626Z,20.75
2022-08-19T20:18:11.658Z,18.77
2022-08-19T20:20:39.119Z,17.60
2022-08-19T20:23:06.228Z,16.30
2022-08-19T20:25:33.260Z,16.05
2022-08-19T20:27:59.901Z,16.10
2022-08-19T20:30:28.557Z,15.95
2022-08-19T20:32:57.672Z,15.82
2022-08-19T20:35:25.693Z,17.50
2022-08-19T20:37:57.555Z,17.42
2022-08-19T20:40:25.030Z,22.57
2022-08-19T20:42:51.656Z,20.42
2022-08-19T20:45:32.136Z,19.15
2022-08-19T20:48:00.173Z,16.35
2022-08-19T20:50:30.179Z,21.15
2022-08-19T20:52:57.634Z,21.20
2022-08-19T20:55:24.825Z,17.75
2022-08-19T20:57:51.640Z,20.83
2022-08-19T21:00:18.820Z,17.23
2022-08-19T21:02:46.483Z,17.60
2022-08-19T21:05:13.104Z,20.65
2022-08-19T21:07:41.082Z,21.45
2022-08-19T21:10:08.383Z,20.80
2022-08-19T21:12:34.986Z,27.30
2022-08-19T21:15:01.633Z,25.20
2022-08-19T21:17:28.223Z,24.48
2022-08-19T21:19:54.788Z,24.35
2022-08-19T21:22:21.433Z,22.33
2022-08-19T21:24:49.374Z,24.67
2022-08-19T21:27:15.926Z,23.17
2022-08-19T21:29:42.511Z,23.05
2022-08-19T21:32:09.116Z,26.98
2022-08-19T21:34:37.068Z,23.80
2022-08-19T21:37:03.832Z,21.83
2022-08-19T21:39:30.624Z,21.85
2022-08-19T21:41:58.524Z,22.08
2022-08-19T21:44:25.079Z,21.52
2022-08-19T21:46:51.708Z,25.70
2022-08-19T21:49:18.283Z,26.15
2022-08-19T21:51:45.383Z,20.50
2022-08-19T21:54:13.980Z,21.25
2022-08-19T21:56:41.358Z,21.30
2022-08-19T21:59:09.308Z,21.63
2022-08-19T22:01:35.854Z,23.05
2022-08-19T22:04:02.428Z,20.92
2022-08-19T22:06:29.024Z,21.92
2022-08-19T22:08:55.749Z,24.98
2022-08-19T22:11:22.432Z,21.20
2022-08-19T22:13:49.181Z,22.50
2022-08-19T22:16:17.291Z,21.20
2022-08-19T22:18:43.841Z,23.13
2022-08-19T22:21:12.226Z,27.13
2022-08-19T22:23:39.626Z,22.88
2022-08-19T22:26:06.262Z,24.42
2022-08-19T22:28:32.954Z,34.08
2022-08-19T22:30:59.492Z,27.45
2022-08-19T22:33:27.853Z,24.70
2022-08-19T22:35:54.473Z,26.55
2022-08-19T22:38:22.326Z,26.33
2022-08-19T22:40:50.343Z,27.25
2022-08-19T22:43:18.590Z,31.73
2022-08-19T22:45:49.092Z,34.05
2022-08-19T22:48:19.728Z,33.33
2022-08-19T22:50:49.300Z,32.05
2022-08-19T22:53:15.844Z,29.08
2022-08-19T22:55:42.432Z,37.78
2022-08-19T22:58:08.986Z,32.70
2022-08-19T23:00:35.664Z,31.05
2022-08-19T23:03:02.295Z,34.83
2022-08-19T23:05:29.277Z,25.80
2022-08-19T23:07:58.397Z,26.85
2022-08-19T23:10:27.806Z,22.60
2022-08-19T23:12:56.477Z,26.08
2022-08-19T23:15:26.857Z,18.08
2022-08-19T23:17:54.874Z,18.55
2022-08-19T23:20:22.757Z,18.73
2022-08-19T23:22:49.563Z,20.80
2022-08-19T23:25:20.090Z,20.65
2022-08-19T23:27:48.197Z,18.35
2022-08-19T23:30:14.790Z,17.35
2022-08-19T23:32:41.373Z,17.10
2022-08-19T23:35:08.650Z,17.20
2022-08-19T23:37:35.245Z,16.23
2022-08-19T23:40:02.112Z,16.30
2022-08-19T23:42:30.062Z,18.10
2022-08-19T23:45:00.839Z,16.65
2022-08-19T23:47:27.367Z,17.30
2022-08-19T23:49:56.284Z,17.67
2022-08-19T23:52:22.837Z,18.58
2022-08-19T23:54:49.423Z,18.58
2022-08-19T23:57:16.027Z,17.77
2022-08-19T23:59:44.646Z,16.92
